Ball Bluff, Minnesota
Current Conditions -  °F | °C
As of 6:46 PM on Tuesday 21 Oct 2014 (Local Time) from KHZX Reporting Station
Clear Clear  
Wind Chill: 42°   Ceiling: Unl
Heat Index: 46°   Visibility: 10mi
Dew Point: 36°   Wind: 8mph
Humidity: 66%   Direction: 130°SE
Pressure: 30.13"   Gusts: NA
Location:  46.9333°N, 93.1876°W
Report Text: KHZX 212346Z AUTO 13007KT 10SM CLR 08/02 A3013 RMK AO2
Loading
Personal Weather Stations






























Interactive Weather Map
Tropical Storm Tracking
New forecast layout! Learn more

10-Day Weather Forecast

Advertisements
Track Severe Weather on mobile